sensor_id;sensor_type;location;lat;lon;timestamp;P1;durP1;ratioP1;P2;durP2;ratioP2
22193;SDS011;11262;50.308;9.270;2022-10-15T00:02:07;5.13;;;2.80;;
22193;SDS011;11262;50.308;9.270;2022-10-15T00:04:33;3.77;;;2.77;;
22193;SDS011;11262;50.308;9.270;2022-10-15T00:06:59;3.40;;;3.10;;
22193;SDS011;11262;50.308;9.270;2022-10-15T00:09:24;3.07;;;2.50;;
22193;SDS011;11262;50.308;9.270;2022-10-15T00:11:50;2.93;;;2.70;;
22193;SDS011;11262;50.308;9.270;2022-10-15T00:14:16;2.90;;;2.70;;
22193;SDS011;11262;50.308;9.270;2022-10-15T00:16:42;2.93;;;2.60;;
22193;SDS011;11262;50.308;9.270;2022-10-15T00:19:08;4.50;;;2.63;;
22193;SDS011;11262;50.308;9.270;2022-10-15T00:21:34;2.77;;;2.57;;
22193;SDS011;11262;50.308;9.270;2022-10-15T00:24:00;2.50;;;2.30;;
22193;SDS011;11262;50.308;9.270;2022-10-15T00:26:27;2.90;;;2.70;;
22193;SDS011;11262;50.308;9.270;2022-10-15T00:28:54;4.27;;;2.50;;
22193;SDS011;11262;50.308;9.270;2022-10-15T00:31:22;2.87;;;2.67;;
22193;SDS011;11262;50.308;9.270;2022-10-15T00:33:50;2.60;;;2.40;;
22193;SDS011;11262;50.308;9.270;2022-10-15T00:36:18;3.20;;;2.33;;
22193;SDS011;11262;50.308;9.270;2022-10-15T00:38:46;3.87;;;2.50;;
22193;SDS011;11262;50.308;9.270;2022-10-15T00:41:13;3.00;;;2.40;;
22193;SDS011;11262;50.308;9.270;2022-10-15T00:43:45;2.70;;;2.50;;
22193;SDS011;11262;50.308;9.270;2022-10-15T00:48:48;3.57;;;2.63;;
22193;SDS011;11262;50.308;9.270;2022-10-15T00:51:17;2.60;;;2.40;;
22193;SDS011;11262;50.308;9.270;2022-10-15T00:53:45;3.37;;;3.07;;
22193;SDS011;11262;50.308;9.270;2022-10-15T00:56:12;3.50;;;3.20;;
22193;SDS011;11262;50.308;9.270;2022-10-15T00:58:41;6.80;;;3.07;;
22193;SDS011;11262;50.308;9.270;2022-10-15T01:01:07;3.13;;;2.80;;
22193;SDS011;11262;50.308;9.270;2022-10-15T01:03:32;3.10;;;2.80;;
22193;SDS011;11262;50.308;9.270;2022-10-15T01:06:00;3.00;;;2.80;;
22193;SDS011;11262;50.308;9.270;2022-10-15T01:08:27;2.50;;;2.30;;
22193;SDS011;11262;50.308;9.270;2022-10-15T01:10:59;2.67;;;2.33;;
22193;SDS011;11262;50.308;9.270;2022-10-15T01:13:37;5.07;;;3.00;;
22193;SDS011;11262;50.308;9.270;2022-10-15T01:16:18;3.73;;;3.33;;
22193;SDS011;11262;50.308;9.270;2022-10-15T01:19:24;6.10;;;3.03;;
22193;SDS011;11262;50.308;9.270;2022-10-15T01:22:15;2.90;;;2.70;;
22193;SDS011;11262;50.308;9.270;2022-10-15T01:28:05;2.60;;;2.40;;
22193;SDS011;11262;50.308;9.270;2022-10-15T01:31:36;2.67;;;2.50;;
22193;SDS011;11262;50.308;9.270;2022-10-15T01:39:15;2.70;;;2.23;;
22193;SDS011;11262;50.308;9.270;2022-10-15T01:41:52;2.70;;;2.50;;
22193;SDS011;11262;50.308;9.270;2022-10-15T01:44:28;3.90;;;2.50;;
22193;SDS011;11262;50.308;9.270;2022-10-15T01:47:00;2.53;;;2.33;;
22193;SDS011;11262;50.308;9.270;2022-10-15T01:49:29;4.80;;;2.70;;
22193;SDS011;11262;50.308;9.270;2022-10-15T01:51:59;3.73;;;2.60;;
22193;SDS011;11262;50.308;9.270;2022-10-15T01:54:28;2.53;;;2.33;;
22193;SDS011;11262;50.308;9.270;2022-10-15T01:56:54;2.47;;;2.27;;
22193;SDS011;11262;50.308;9.270;2022-10-15T01:59:22;2.53;;;2.33;;
22193;SDS011;11262;50.308;9.270;2022-10-15T02:01:51;2.50;;;2.30;;
22193;SDS011;11262;50.308;9.270;2022-10-15T02:04:21;3.33;;;2.70;;
22193;SDS011;11262;50.308;9.270;2022-10-15T02:06:50;2.30;;;2.20;;
22193;SDS011;11262;50.308;9.270;2022-10-15T02:15:15;2.20;;;2.10;;
22193;SDS011;11262;50.308;9.270;2022-10-15T02:20:39;5.30;;;2.40;;
22193;SDS011;11262;50.308;9.270;2022-10-15T02:25:44;2.50;;;2.30;;
22193;SDS011;11262;50.308;9.270;2022-10-15T02:28:11;3.57;;;2.80;;
22193;SDS011;11262;50.308;9.270;2022-10-15T02:30:39;3.23;;;2.70;;
22193;SDS011;11262;50.308;9.270;2022-10-15T02:33:07;4.50;;;2.60;;
22193;SDS011;11262;50.308;9.270;2022-10-15T02:35:34;9.30;;;3.90;;
22193;SDS011;11262;50.308;9.270;2022-10-15T02:38:01;15.30;;;5.27;;
22193;SDS011;11262;50.308;9.270;2022-10-15T02:40:31;14.73;;;4.83;;
22193;SDS011;11262;50.308;9.270;2022-10-15T02:42:59;16.60;;;5.13;;
22193;SDS011;11262;50.308;9.270;2022-10-15T02:45:24;8.03;;;3.23;;
22193;SDS011;11262;50.308;9.270;2022-10-15T02:47:50;4.20;;;2.83;;
22193;SDS011;11262;50.308;9.270;2022-10-15T02:50:15;4.20;;;2.43;;
22193;SDS011;11262;50.308;9.270;2022-10-15T02:52:41;2.70;;;2.50;;
22193;SDS011;11262;50.308;9.270;2022-10-15T02:55:07;3.27;;;2.43;;
22193;SDS011;11262;50.308;9.270;2022-10-15T02:57:33;6.07;;;2.47;;
22193;SDS011;11262;50.308;9.270;2022-10-15T02:59:58;2.87;;;2.60;;
22193;SDS011;11262;50.308;9.270;2022-10-15T03:02:24;3.17;;;2.37;;
22193;SDS011;11262;50.308;9.270;2022-10-15T03:04:49;2.00;;;1.90;;
22193;SDS011;11262;50.308;9.270;2022-10-15T03:07:15;1.90;;;1.80;;
22193;SDS011;11262;50.308;9.270;2022-10-15T03:09:40;2.80;;;2.00;;
22193;SDS011;11262;50.308;9.270;2022-10-15T03:12:06;2.17;;;2.07;;
22193;SDS011;11262;50.308;9.270;2022-10-15T03:14:32;2.10;;;2.00;;
22193;SDS011;11262;50.308;9.270;2022-10-15T03:16:58;4.07;;;2.00;;
22193;SDS011;11262;50.308;9.270;2022-10-15T03:19:23;2.00;;;1.90;;
22193;SDS011;11262;50.308;9.270;2022-10-15T03:21:50;2.20;;;1.90;;
22193;SDS011;11262;50.308;9.270;2022-10-15T03:24:15;2.13;;;2.03;;
22193;SDS011;11262;50.308;9.270;2022-10-15T03:26:41;2.10;;;2.00;;
22193;SDS011;11262;50.308;9.270;2022-10-15T03:29:06;2.10;;;2.00;;
22193;SDS011;11262;50.308;9.270;2022-10-15T03:31:32;2.07;;;1.97;;
22193;SDS011;11262;50.308;9.270;2022-10-15T03:33:57;2.83;;;1.73;;
22193;SDS011;11262;50.308;9.270;2022-10-15T03:36:23;3.90;;;1.90;;
22193;SDS011;11262;50.308;9.270;2022-10-15T03:38:49;1.70;;;1.60;;
22193;SDS011;11262;50.308;9.270;2022-10-15T03:41:14;1.90;;;1.80;;
22193;SDS011;11262;50.308;9.270;2022-10-15T03:43:40;2.00;;;1.90;;
22193;SDS011;11262;50.308;9.270;2022-10-15T03:46:05;2.13;;;2.03;;
22193;SDS011;11262;50.308;9.270;2022-10-15T03:48:31;2.87;;;2.00;;
22193;SDS011;11262;50.308;9.270;2022-10-15T03:50:56;2.40;;;2.20;;
22193;SDS011;11262;50.308;9.270;2022-10-15T03:53:22;2.00;;;1.90;;
22193;SDS011;11262;50.308;9.270;2022-10-15T03:55:48;2.00;;;1.90;;
22193;SDS011;11262;50.308;9.270;2022-10-15T03:58:14;4.40;;;2.47;;
22193;SDS011;11262;50.308;9.270;2022-10-15T04:00:40;3.10;;;2.50;;
22193;SDS011;11262;50.308;9.270;2022-10-15T04:03:07;4.27;;;2.67;;
22193;SDS011;11262;50.308;9.270;2022-10-15T04:05:32;2.60;;;2.20;;
22193;SDS011;11262;50.308;9.270;2022-10-15T04:07:58;5.93;;;2.47;;
22193;SDS011;11262;50.308;9.270;2022-10-15T04:10:24;5.83;;;2.37;;
22193;SDS011;11262;50.308;9.270;2022-10-15T04:12:50;3.93;;;2.30;;
22193;SDS011;11262;50.308;9.270;2022-10-15T04:15:16;9.43;;;2.60;;
22193;SDS011;11262;50.308;9.270;2022-10-15T04:17:41;6.30;;;2.57;;
22193;SDS011;11262;50.308;9.270;2022-10-15T04:20:07;12.93;;;2.70;;
22193;SDS011;11262;50.308;9.270;2022-10-15T04:22:33;9.70;;;2.40;;
22193;SDS011;11262;50.308;9.270;2022-10-15T04:25:00;8.40;;;2.53;;
22193;SDS011;11262;50.308;9.270;2022-10-15T04:27:26;11.10;;;2.80;;
22193;SDS011;11262;50.308;9.270;2022-10-15T04:29:51;12.83;;;2.80;;
22193;SDS011;11262;50.308;9.270;2022-10-15T04:32:17;5.97;;;2.47;;
22193;SDS011;11262;50.308;9.270;2022-10-15T04:34:43;13.60;;;2.73;;
22193;SDS011;11262;50.308;9.270;2022-10-15T04:37:10;17.83;;;2.80;;
22193;SDS011;11262;50.308;9.270;2022-10-15T04:39:36;21.50;;;2.87;;
22193;SDS011;11262;50.308;9.270;2022-10-15T04:42:01;23.27;;;2.67;;
22193;SDS011;11262;50.308;9.270;2022-10-15T04:44:27;18.63;;;2.63;;
22193;SDS011;11262;50.308;9.270;2022-10-15T04:46:53;25.50;;;2.90;;
22193;SDS011;11262;50.308;9.270;2022-10-15T04:49:18;14.80;;;3.00;;
22193;SDS011;11262;50.308;9.270;2022-10-15T04:51:44;17.13;;;2.70;;
22193;SDS011;11262;50.308;9.270;2022-10-15T04:54:09;21.03;;;3.30;;
22193;SDS011;11262;50.308;9.270;2022-10-15T04:56:35;31.73;;;2.97;;
22193;SDS011;11262;50.308;9.270;2022-10-15T04:59:00;19.87;;;2.90;;
22193;SDS011;11262;50.308;9.270;2022-10-15T05:01:30;27.63;;;5.40;;
22193;SDS011;11262;50.308;9.270;2022-10-15T05:03:55;33.20;;;4.93;;
22193;SDS011;11262;50.308;9.270;2022-10-15T05:06:21;29.40;;;4.30;;
22193;SDS011;11262;50.308;9.270;2022-10-15T05:08:47;36.77;;;5.47;;
22193;SDS011;11262;50.308;9.270;2022-10-15T05:13:44;45.93;;;5.50;;
22193;SDS011;11262;50.308;9.270;2022-10-15T05:16:20;49.77;;;8.80;;
22193;SDS011;11262;50.308;9.270;2022-10-15T05:18:47;52.70;;;9.43;;
22193;SDS011;11262;50.308;9.270;2022-10-15T05:21:15;50.93;;;6.73;;
22193;SDS011;11262;50.308;9.270;2022-10-15T05:23:41;25.53;;;4.10;;
22193;SDS011;11262;50.308;9.270;2022-10-15T05:26:11;26.10;;;3.80;;
22193;SDS011;11262;50.308;9.270;2022-10-15T05:28:39;30.90;;;3.70;;
22193;SDS011;11262;50.308;9.270;2022-10-15T05:31:05;23.17;;;3.43;;
22193;SDS011;11262;50.308;9.270;2022-10-15T05:33:32;27.23;;;3.60;;
22193;SDS011;11262;50.308;9.270;2022-10-15T05:36:12;29.10;;;4.43;;
22193;SDS011;11262;50.308;9.270;2022-10-15T05:38:41;26.77;;;3.90;;
22193;SDS011;11262;50.308;9.270;2022-10-15T05:41:07;40.93;;;3.80;;
22193;SDS011;11262;50.308;9.270;2022-10-15T05:43:33;34.93;;;3.33;;
22193;SDS011;11262;50.308;9.270;2022-10-15T05:45:58;33.43;;;4.20;;
22193;SDS011;11262;50.308;9.270;2022-10-15T05:48:24;40.33;;;4.33;;
22193;SDS011;11262;50.308;9.270;2022-10-15T05:50:49;33.27;;;4.47;;
22193;SDS011;11262;50.308;9.270;2022-10-15T05:53:15;44.07;;;4.30;;
22193;SDS011;11262;50.308;9.270;2022-10-15T05:55:41;41.20;;;4.70;;
22193;SDS011;11262;50.308;9.270;2022-10-15T05:58:06;60.90;;;4.90;;
22193;SDS011;11262;50.308;9.270;2022-10-15T06:00:32;55.03;;;4.20;;
22193;SDS011;11262;50.308;9.270;2022-10-15T06:02:58;83.23;;;6.30;;
22193;SDS011;11262;50.308;9.270;2022-10-15T06:05:24;47.50;;;4.57;;
22193;SDS011;11262;50.308;9.270;2022-10-15T06:07:50;27.60;;;4.13;;
22193;SDS011;11262;50.308;9.270;2022-10-15T06:10:15;49.63;;;4.20;;
22193;SDS011;11262;50.308;9.270;2022-10-15T06:12:41;32.97;;;3.93;;
22193;SDS011;11262;50.308;9.270;2022-10-15T06:15:08;31.87;;;4.20;;
22193;SDS011;11262;50.308;9.270;2022-10-15T06:17:34;38.70;;;4.13;;
22193;SDS011;11262;50.308;9.270;2022-10-15T06:19:59;67.10;;;5.13;;
22193;SDS011;11262;50.308;9.270;2022-10-15T06:22:25;105.30;;;5.93;;
22193;SDS011;11262;50.308;9.270;2022-10-15T06:24:54;74.50;;;5.57;;
22193;SDS011;11262;50.308;9.270;2022-10-15T06:27:20;74.27;;;6.10;;
22193;SDS011;11262;50.308;9.270;2022-10-15T06:29:46;49.77;;;4.80;;
22193;SDS011;11262;50.308;9.270;2022-10-15T06:32:11;75.60;;;5.37;;
22193;SDS011;11262;50.308;9.270;2022-10-15T06:34:37;131.47;;;7.30;;
22193;SDS011;11262;50.308;9.270;2022-10-15T06:37:03;62.70;;;5.13;;
22193;SDS011;11262;50.308;9.270;2022-10-15T06:39:28;59.70;;;5.30;;
22193;SDS011;11262;50.308;9.270;2022-10-15T06:41:54;104.13;;;8.30;;
22193;SDS011;11262;50.308;9.270;2022-10-15T06:44:19;94.83;;;7.70;;
22193;SDS011;11262;50.308;9.270;2022-10-15T06:46:45;86.90;;;5.70;;
22193;SDS011;11262;50.308;9.270;2022-10-15T06:49:10;52.27;;;5.37;;
22193;SDS011;11262;50.308;9.270;2022-10-15T06:51:36;116.10;;;7.23;;
22193;SDS011;11262;50.308;9.270;2022-10-15T06:54:02;182.00;;;8.90;;
22193;SDS011;11262;50.308;9.270;2022-10-15T06:56:28;130.50;;;7.10;;
22193;SDS011;11262;50.308;9.270;2022-10-15T06:58:54;186.63;;;8.53;;
22193;SDS011;11262;50.308;9.270;2022-10-15T07:01:19;140.27;;;7.23;;
22193;SDS011;11262;50.308;9.270;2022-10-15T07:03:48;236.77;;;9.40;;
22193;SDS011;11262;50.308;9.270;2022-10-15T07:06:14;213.33;;;9.70;;
22193;SDS011;11262;50.308;9.270;2022-10-15T07:08:40;191.33;;;9.57;;
22193;SDS011;11262;50.308;9.270;2022-10-15T07:11:06;161.63;;;8.20;;
22193;SDS011;11262;50.308;9.270;2022-10-15T07:13:33;115.30;;;7.17;;
22193;SDS011;11262;50.308;9.270;2022-10-15T07:16:06;145.73;;;6.93;;
22193;SDS011;11262;50.308;9.270;2022-10-15T07:18:33;125.83;;;7.47;;
22193;SDS011;11262;50.308;9.270;2022-10-15T07:20:59;302.83;;;11.17;;
22193;SDS011;11262;50.308;9.270;2022-10-15T07:23:25;143.87;;;9.40;;
22193;SDS011;11262;50.308;9.270;2022-10-15T07:25:50;299.50;;;14.80;;
22193;SDS011;11262;50.308;9.270;2022-10-15T07:28:21;299.00;;;16.77;;
22193;SDS011;11262;50.308;9.270;2022-10-15T07:30:47;357.67;;;15.30;;
22193;SDS011;11262;50.308;9.270;2022-10-15T07:33:12;227.43;;;12.00;;
22193;SDS011;11262;50.308;9.270;2022-10-15T07:35:38;301.60;;;12.50;;
22193;SDS011;11262;50.308;9.270;2022-10-15T07:38:04;376.43;;;13.00;;
22193;SDS011;11262;50.308;9.270;2022-10-15T07:40:29;439.97;;;15.27;;
22193;SDS011;11262;50.308;9.270;2022-10-15T07:42:55;246.93;;;10.97;;
22193;SDS011;11262;50.308;9.270;2022-10-15T07:45:22;311.00;;;14.00;;
22193;SDS011;11262;50.308;9.270;2022-10-15T07:47:48;210.37;;;9.73;;
22193;SDS011;11262;50.308;9.270;2022-10-15T07:50:14;283.77;;;13.03;;
22193;SDS011;11262;50.308;9.270;2022-10-15T07:52:40;473.73;;;17.43;;
22193;SDS011;11262;50.308;9.270;2022-10-15T07:55:05;435.90;;;16.80;;
22193;SDS011;11262;50.308;9.270;2022-10-15T07:57:31;324.63;;;16.53;;
22193;SDS011;11262;50.308;9.270;2022-10-15T07:59:57;454.90;;;17.60;;
22193;SDS011;11262;50.308;9.270;2022-10-15T08:02:22;363.20;;;18.17;;
22193;SDS011;11262;50.308;9.270;2022-10-15T08:04:48;208.80;;;13.80;;
22193;SDS011;11262;50.308;9.270;2022-10-15T08:07:14;80.97;;;11.57;;
22193;SDS011;11262;50.308;9.270;2022-10-15T08:09:39;104.93;;;12.60;;
22193;SDS011;11262;50.308;9.270;2022-10-15T08:12:05;43.93;;;11.00;;
22193;SDS011;11262;50.308;9.270;2022-10-15T08:14:31;31.80;;;9.80;;
22193;SDS011;11262;50.308;9.270;2022-10-15T08:16:57;37.30;;;9.97;;
22193;SDS011;11262;50.308;9.270;2022-10-15T08:19:23;33.60;;;9.50;;
22193;SDS011;11262;50.308;9.270;2022-10-15T08:21:49;31.30;;;8.40;;
22193;SDS011;11262;50.308;9.270;2022-10-15T08:24:14;29.03;;;8.30;;
22193;SDS011;11262;50.308;9.270;2022-10-15T08:26:40;29.47;;;9.07;;
22193;SDS011;11262;50.308;9.270;2022-10-15T08:29:05;25.73;;;8.27;;
22193;SDS011;11262;50.308;9.270;2022-10-15T08:31:31;25.67;;;7.80;;
22193;SDS011;11262;50.308;9.270;2022-10-15T08:34:00;29.33;;;9.33;;
22193;SDS011;11262;50.308;9.270;2022-10-15T08:36:26;35.80;;;10.70;;
22193;SDS011;11262;50.308;9.270;2022-10-15T08:38:52;28.07;;;9.20;;
22193;SDS011;11262;50.308;9.270;2022-10-15T08:41:37;26.40;;;8.17;;
22193;SDS011;11262;50.308;9.270;2022-10-15T08:44:19;30.83;;;10.13;;
22193;SDS011;11262;50.308;9.270;2022-10-15T08:46:46;27.50;;;10.10;;
22193;SDS011;11262;50.308;9.270;2022-10-15T08:49:41;50.20;;;19.57;;
22193;SDS011;11262;50.308;9.270;2022-10-15T08:54:54;32.53;;;13.47;;
22193;SDS011;11262;50.308;9.270;2022-10-15T08:59:58;16.17;;;6.60;;
22193;SDS011;11262;50.308;9.270;2022-10-15T09:03:14;21.73;;;7.60;;
22193;SDS011;11262;50.308;9.270;2022-10-15T09:07:43;18.77;;;6.73;;
22193;SDS011;11262;50.308;9.270;2022-10-15T09:10:35;18.03;;;7.10;;
22193;SDS011;11262;50.308;9.270;2022-10-15T09:16:02;18.73;;;7.57;;
22193;SDS011;11262;50.308;9.270;2022-10-15T09:18:36;18.90;;;7.07;;
22193;SDS011;11262;50.308;9.270;2022-10-15T09:21:05;13.43;;;6.73;;
22193;SDS011;11262;50.308;9.270;2022-10-15T09:23:34;16.63;;;7.20;;
22193;SDS011;11262;50.308;9.270;2022-10-15T09:26:44;17.17;;;7.40;;
22193;SDS011;11262;50.308;9.270;2022-10-15T09:31:52;16.37;;;8.03;;
22193;SDS011;11262;50.308;9.270;2022-10-15T09:37:30;14.17;;;6.90;;
22193;SDS011;11262;50.308;9.270;2022-10-15T09:42:44;14.57;;;6.60;;
22193;SDS011;11262;50.308;9.270;2022-10-15T09:45:14;12.37;;;6.37;;
22193;SDS011;11262;50.308;9.270;2022-10-15T09:47:41;14.60;;;6.30;;
22193;SDS011;11262;50.308;9.270;2022-10-15T09:50:12;10.73;;;5.83;;
22193;SDS011;11262;50.308;9.270;2022-10-15T09:52:52;12.13;;;6.43;;
22193;SDS011;11262;50.308;9.270;2022-10-15T09:58:20;10.30;;;5.53;;
22193;SDS011;11262;50.308;9.270;2022-10-15T10:03:26;11.87;;;5.30;;
22193;SDS011;11262;50.308;9.270;2022-10-15T10:06:06;10.93;;;5.43;;
22193;SDS011;11262;50.308;9.270;2022-10-15T10:08:46;8.70;;;5.00;;
22193;SDS011;11262;50.308;9.270;2022-10-15T10:11:16;11.50;;;5.80;;
22193;SDS011;11262;50.308;9.270;2022-10-15T10:13:51;10.87;;;5.43;;
22193;SDS011;11262;50.308;9.270;2022-10-15T10:16:18;12.57;;;5.80;;
22193;SDS011;11262;50.308;9.270;2022-10-15T10:19:00;9.67;;;5.27;;
22193;SDS011;11262;50.308;9.270;2022-10-15T10:21:40;14.90;;;6.90;;
22193;SDS011;11262;50.308;9.270;2022-10-15T10:24:20;7.43;;;4.93;;
22193;SDS011;11262;50.308;9.270;2022-10-15T10:26:49;11.10;;;5.90;;
22193;SDS011;11262;50.308;9.270;2022-10-15T10:29:16;10.30;;;5.43;;
22193;SDS011;11262;50.308;9.270;2022-10-15T10:31:44;12.93;;;5.47;;
22193;SDS011;11262;50.308;9.270;2022-10-15T10:34:17;10.33;;;5.33;;
22193;SDS011;11262;50.308;9.270;2022-10-15T10:36:50;8.80;;;5.40;;
22193;SDS011;11262;50.308;9.270;2022-10-15T10:39:27;8.80;;;5.57;;
22193;SDS011;11262;50.308;9.270;2022-10-15T10:41:58;11.03;;;5.77;;
22193;SDS011;11262;50.308;9.270;2022-10-15T10:49:56;12.87;;;6.00;;
22193;SDS011;11262;50.308;9.270;2022-10-15T10:52:24;17.33;;;9.17;;
22193;SDS011;11262;50.308;9.270;2022-10-15T10:54:58;9.47;;;5.33;;
22193;SDS011;11262;50.308;9.270;2022-10-15T11:00:34;13.40;;;6.33;;
22193;SDS011;11262;50.308;9.270;2022-10-15T11:03:31;9.87;;;5.20;;
22193;SDS011;11262;50.308;9.270;2022-10-15T11:42:01;5.43;;;3.60;;
22193;SDS011;11262;50.308;9.270;2022-10-15T11:55:56;6.53;;;4.00;;
22193;SDS011;11262;50.308;9.270;2022-10-15T11:58:38;7.07;;;3.90;;
22193;SDS011;11262;50.308;9.270;2022-10-15T12:01:14;5.93;;;4.33;;
22193;SDS011;11262;50.308;9.270;2022-10-15T12:03:50;6.47;;;4.70;;
22193;SDS011;11262;50.308;9.270;2022-10-15T12:06:21;7.33;;;4.23;;
22193;SDS011;11262;50.308;9.270;2022-10-15T12:08:51;8.77;;;5.23;;
22193;SDS011;11262;50.308;9.270;2022-10-15T12:13:55;5.90;;;4.07;;
22193;SDS011;11262;50.308;9.270;2022-10-15T12:16:33;6.00;;;4.20;;
22193;SDS011;11262;50.308;9.270;2022-10-15T12:19:18;13.13;;;6.73;;
22193;SDS011;11262;50.308;9.270;2022-10-15T12:29:47;35.10;;;16.37;;
22193;SDS011;11262;50.308;9.270;2022-10-15T12:32:42;25.13;;;11.63;;
22193;SDS011;11262;50.308;9.270;2022-10-15T12:35:23;10.97;;;5.87;;
22193;SDS011;11262;50.308;9.270;2022-10-15T12:37:54;12.30;;;6.03;;
22193;SDS011;11262;50.308;9.270;2022-10-15T12:40:32;9.23;;;5.40;;
22193;SDS011;11262;50.308;9.270;2022-10-15T12:43:00;7.80;;;4.83;;
22193;SDS011;11262;50.308;9.270;2022-10-15T12:50:42;11.63;;;6.20;;
22193;SDS011;11262;50.308;9.270;2022-10-15T12:58:48;7.60;;;5.40;;
22193;SDS011;11262;50.308;9.270;2022-10-15T13:06:23;5.17;;;4.23;;
22193;SDS011;11262;50.308;9.270;2022-10-15T13:11:36;7.87;;;4.10;;
22193;SDS011;11262;50.308;9.270;2022-10-15T13:16:50;6.80;;;3.63;;
22193;SDS011;11262;50.308;9.270;2022-10-15T13:19:18;6.53;;;3.77;;
22193;SDS011;11262;50.308;9.270;2022-10-15T13:21:46;5.10;;;3.87;;
22193;SDS011;11262;50.308;9.270;2022-10-15T13:24:14;7.17;;;3.90;;
22193;SDS011;11262;50.308;9.270;2022-10-15T13:26:43;6.83;;;3.93;;
22193;SDS011;11262;50.308;9.270;2022-10-15T13:29:15;5.90;;;4.37;;
22193;SDS011;11262;50.308;9.270;2022-10-15T13:31:43;6.30;;;4.17;;
22193;SDS011;11262;50.308;9.270;2022-10-15T13:34:15;5.80;;;3.27;;
22193;SDS011;11262;50.308;9.270;2022-10-15T13:36:43;4.47;;;3.97;;
22193;SDS011;11262;50.308;9.270;2022-10-15T13:41:50;8.43;;;4.70;;
22193;SDS011;11262;50.308;9.270;2022-10-15T13:44:30;9.07;;;4.17;;
22193;SDS011;11262;50.308;9.270;2022-10-15T13:46:55;5.43;;;3.20;;
22193;SDS011;11262;50.308;9.270;2022-10-15T13:49:21;8.52;;;4.22;;
22193;SDS011;11262;50.308;9.270;2022-10-15T13:51:48;4.70;;;3.60;;
22193;SDS011;11262;50.308;9.270;2022-10-15T13:54:20;9.07;;;6.57;;
22193;SDS011;11262;50.308;9.270;2022-10-15T13:56:52;13.93;;;8.57;;
22193;SDS011;11262;50.308;9.270;2022-10-15T13:59:20;15.35;;;9.50;;
22193;SDS011;11262;50.308;9.270;2022-10-15T14:01:48;8.60;;;7.00;;
22193;SDS011;11262;50.308;9.270;2022-10-15T14:04:19;4.77;;;3.27;;
22193;SDS011;11262;50.308;9.270;2022-10-15T14:06:54;5.73;;;3.73;;
22193;SDS011;11262;50.308;9.270;2022-10-15T14:09:39;24.07;;;12.73;;
22193;SDS011;11262;50.308;9.270;2022-10-15T14:12:06;8.97;;;5.30;;
22193;SDS011;11262;50.308;9.270;2022-10-15T14:14:37;4.97;;;4.13;;
22193;SDS011;11262;50.308;9.270;2022-10-15T14:19:49;5.68;;;3.80;;
22193;SDS011;11262;50.308;9.270;2022-10-15T14:22:21;6.83;;;3.20;;
22193;SDS011;11262;50.308;9.270;2022-10-15T14:24:51;5.73;;;3.33;;
22193;SDS011;11262;50.308;9.270;2022-10-15T14:27:22;7.30;;;3.10;;
22193;SDS011;11262;50.308;9.270;2022-10-15T14:29:57;4.63;;;3.00;;
22193;SDS011;11262;50.308;9.270;2022-10-15T14:32:31;5.17;;;3.00;;
22193;SDS011;11262;50.308;9.270;2022-10-15T14:35:23;3.77;;;2.83;;
22193;SDS011;11262;50.308;9.270;2022-10-15T14:38:14;5.43;;;3.30;;
22193;SDS011;11262;50.308;9.270;2022-10-15T14:40:40;4.97;;;4.17;;
22193;SDS011;11262;50.308;9.270;2022-10-15T14:43:36;3.07;;;2.80;;
22193;SDS011;11262;50.308;9.270;2022-10-15T14:46:05;4.30;;;3.27;;
22193;SDS011;11262;50.308;9.270;2022-10-15T14:48:37;5.83;;;3.40;;
22193;SDS011;11262;50.308;9.270;2022-10-15T14:51:05;4.73;;;3.30;;
22193;SDS011;11262;50.308;9.270;2022-10-15T14:53:36;5.77;;;3.37;;
22193;SDS011;11262;50.308;9.270;2022-10-15T14:56:09;7.03;;;3.43;;
22193;SDS011;11262;50.308;9.270;2022-10-15T14:58:45;5.13;;;3.50;;
22193;SDS011;11262;50.308;9.270;2022-10-15T15:01:16;6.97;;;3.17;;
22193;SDS011;11262;50.308;9.270;2022-10-15T15:03:44;5.13;;;3.30;;
22193;SDS011;11262;50.308;9.270;2022-10-15T15:06:12;3.50;;;2.93;;
22193;SDS011;11262;50.308;9.270;2022-10-15T15:08:38;3.73;;;3.10;;
22193;SDS011;11262;50.308;9.270;2022-10-15T15:11:04;4.10;;;3.70;;
22193;SDS011;11262;50.308;9.270;2022-10-15T15:13:39;3.23;;;2.90;;
22193;SDS011;11262;50.308;9.270;2022-10-15T15:16:16;4.20;;;3.07;;
22193;SDS011;11262;50.308;9.270;2022-10-15T15:18:42;9.90;;;3.43;;
22193;SDS011;11262;50.308;9.270;2022-10-15T15:21:11;5.23;;;3.60;;
22193;SDS011;11262;50.308;9.270;2022-10-15T15:23:44;11.00;;;3.50;;
22193;SDS011;11262;50.308;9.270;2022-10-15T15:26:10;7.87;;;3.50;;
22193;SDS011;11262;50.308;9.270;2022-10-15T15:28:35;4.73;;;3.50;;
22193;SDS011;11262;50.308;9.270;2022-10-15T15:31:02;7.33;;;3.70;;
22193;SDS011;11262;50.308;9.270;2022-10-15T15:33:30;7.30;;;4.80;;
22193;SDS011;11262;50.308;9.270;2022-10-15T15:36:03;9.53;;;6.07;;
22193;SDS011;11262;50.308;9.270;2022-10-15T15:38:39;6.93;;;4.90;;
22193;SDS011;11262;50.308;9.270;2022-10-15T15:43:41;6.97;;;5.27;;
22193;SDS011;11262;50.308;9.270;2022-10-15T15:46:07;12.27;;;7.50;;
22193;SDS011;11262;50.308;9.270;2022-10-15T15:48:33;11.43;;;8.27;;
22193;SDS011;11262;50.308;9.270;2022-10-15T15:51:03;6.03;;;5.13;;
22193;SDS011;11262;50.308;9.270;2022-10-15T15:53:30;4.40;;;4.00;;
22193;SDS011;11262;50.308;9.270;2022-10-15T15:55:56;7.97;;;4.13;;
22193;SDS011;11262;50.308;9.270;2022-10-15T15:58:22;4.00;;;3.40;;
22193;SDS011;11262;50.308;9.270;2022-10-15T16:00:48;6.50;;;4.10;;
22193;SDS011;11262;50.308;9.270;2022-10-15T16:03:13;4.83;;;3.53;;
22193;SDS011;11262;50.308;9.270;2022-10-15T16:05:39;5.87;;;4.27;;
22193;SDS011;11262;50.308;9.270;2022-10-15T16:08:05;5.17;;;4.03;;
22193;SDS011;11262;50.308;9.270;2022-10-15T16:10:32;7.27;;;4.50;;
22193;SDS011;11262;50.308;9.270;2022-10-15T16:12:59;6.27;;;4.23;;
22193;SDS011;11262;50.308;9.270;2022-10-15T16:15:25;4.03;;;3.63;;
22193;SDS011;11262;50.308;9.270;2022-10-15T16:17:51;9.37;;;4.00;;
22193;SDS011;11262;50.308;9.270;2022-10-15T16:20:16;6.93;;;4.30;;
22193;SDS011;11262;50.308;9.270;2022-10-15T16:22:43;19.53;;;8.60;;
22193;SDS011;11262;50.308;9.270;2022-10-15T16:25:08;12.93;;;6.00;;
22193;SDS011;11262;50.308;9.270;2022-10-15T16:27:34;20.43;;;7.73;;
22193;SDS011;11262;50.308;9.270;2022-10-15T16:30:00;18.03;;;7.87;;
22193;SDS011;11262;50.308;9.270;2022-10-15T16:32:27;10.77;;;5.40;;
22193;SDS011;11262;50.308;9.270;2022-10-15T16:34:53;17.93;;;7.47;;
22193;SDS011;11262;50.308;9.270;2022-10-15T16:37:18;16.80;;;7.27;;
22193;SDS011;11262;50.308;9.270;2022-10-15T16:39:44;17.50;;;7.67;;
22193;SDS011;11262;50.308;9.270;2022-10-15T16:42:09;13.83;;;6.27;;
22193;SDS011;11262;50.308;9.270;2022-10-15T16:44:37;13.13;;;5.50;;
22193;SDS011;11262;50.308;9.270;2022-10-15T16:47:03;19.17;;;8.20;;
22193;SDS011;11262;50.308;9.270;2022-10-15T16:49:29;13.97;;;6.13;;
22193;SDS011;11262;50.308;9.270;2022-10-15T16:51:55;13.90;;;7.50;;
22193;SDS011;11262;50.308;9.270;2022-10-15T16:54:20;11.20;;;5.40;;
22193;SDS011;11262;50.308;9.270;2022-10-15T16:56:46;9.27;;;5.70;;
22193;SDS011;11262;50.308;9.270;2022-10-15T16:59:11;15.40;;;6.37;;
22193;SDS011;11262;50.308;9.270;2022-10-15T17:01:37;8.80;;;5.30;;
22193;SDS011;11262;50.308;9.270;2022-10-15T17:04:03;19.43;;;9.53;;
22193;SDS011;11262;50.308;9.270;2022-10-15T17:06:29;38.30;;;16.53;;
22193;SDS011;11262;50.308;9.270;2022-10-15T17:08:56;54.93;;;23.87;;
22193;SDS011;11262;50.308;9.270;2022-10-15T17:11:27;17.70;;;8.83;;
22193;SDS011;11262;50.308;9.270;2022-10-15T17:13:58;9.40;;;5.80;;
22193;SDS011;11262;50.308;9.270;2022-10-15T17:16:30;13.03;;;6.20;;